Terminal Aerodrome Forecast
Issued by NWS

Home | Current Version | Previous Version | Text Only | Print | Product List | Glossary On
Versions: 1 2 3 4 5 6 7 8 9 10 11 12 13 14 15 16 17 18 19 20
000
FTUS43 KEAX 302338
TAFSTJ
TAF
KSTJ 302338Z 3100/3124 15006KT P6SM SKC
     FM311100 13005KT 3SM BR FEW035
     FM311500 16008KT P6SM FEW030
     FM311900 18011G14KT P6SM SCT050=

USA.gov is the U.S. government's official web portal to all federal, state and local government web resources and services.